Time;durP1;ratioP1;P1;durP2;ratioP2;P2;SDS_P1;SDS_P2;PMS_P1;PMS_P2;Temp;Humidity;BMP_temperature;BMP_pressure;BME280_temperature;BME280_humidity;BME280_pressure;Samples;Min_cycle;Max_cycle;Signal;HPM_P1;HPM_P2
2023/10/09 00:01:44;;;;;;;;;46.00;38.80;;;;;23.91;100.00;101733.66;2104494;28;46910;-56
2023/10/09 00:02:44;;;;;;;;;49.60;40.00;;;;;23.91;100.00;101734.53;2102271;28;46690;-55
2023/10/09 00:03:45;;;;;;;;;46.00;38.75;;;;;23.93;100.00;101735.28;2096518;28;46650;-55
2023/10/09 00:04:45;;;;;;;;;44.75;36.75;;;;;23.95;100.00;101732.50;2104605;28;46712;-56
2023/10/09 00:05:46;;;;;;;;;44.25;36.50;;;;;23.95;100.00;101727.06;2102884;28;46536;-55
2023/10/09 00:06:46;;;;;;;;;38.75;33.50;;;;;23.96;100.00;101735.09;2104765;28;46623;-56
2023/10/09 00:07:47;;;;;;;;;38.00;32.50;;;;;23.95;100.00;101729.78;2104744;28;46612;-56
2023/10/09 00:08:50;;;;;;;;;41.75;35.25;;;;;23.93;100.00;101721.75;2096051;28;46478;-57
2023/10/09 00:09:50;;;;;;;;;49.00;38.80;;;;;23.93;100.00;101727.16;2094760;28;46837;-56
2023/10/09 00:10:54;;;;;;;;;52.50;42.50;;;;;23.94;100.00;101728.03;2110417;27;46471;-57
2023/10/09 00:11:58;;;;;;;;;50.40;41.60;;;;;23.95;100.00;101729.78;2113039;27;46531;-55
2023/10/09 00:12:59;;;;;;;;;50.20;41.00;;;;;23.95;100.00;101722.50;2105443;27;46684;-54
2023/10/09 00:14:00;;;;;;;;;49.25;41.00;;;;;23.94;100.00;101726.19;2113944;27;46783;-56
2023/10/09 00:15:10;;;;;;;;;48.00;41.00;;;;;23.95;100.00;101725.22;2114046;27;46650;-54
2023/10/09 00:16:22;;;;;;;;;42.40;36.20;;;;;23.94;100.00;101722.63;2104879;28;46691;-55
2023/10/09 00:17:23;;;;;;;;;39.60;33.60;;;;;23.91;100.00;101725.53;2102514;28;46680;-58
2023/10/09 00:18:29;;;;;;;;;42.50;36.00;;;;;23.87;100.00;101724.81;2098977;28;46309;-55
2023/10/09 00:19:33;;;;;;;;;48.40;38.00;;;;;23.85;100.00;101721.34;2103674;27;46280;-55
2023/10/09 00:20:41;;;;;;;;;44.20;37.80;;;;;23.82;100.00;101723.38;2104644;27;46550;-57
2023/10/09 00:21:41;;;;;;;;;49.00;40.00;;;;;23.82;100.00;101723.38;2105432;27;46384;-55
2023/10/09 00:22:43;;;;;;;;;39.25;33.75;;;;;23.80;100.00;101720.75;2104517;27;46683;-56
2023/10/09 00:23:43;;;;;;;;;42.40;36.20;;;;;23.81;100.00;101721.63;2104182;27;46514;-55
2023/10/09 00:24:46;;;;;;;;;45.25;37.75;;;;;23.78;100.00;101714.56;2104069;28;46661;-55
2023/10/09 00:26:08;;;;;;;;;46.40;39.00;;;;;23.76;100.00;101711.94;2104806;27;46290;-56
2023/10/09 00:27:12;;;;;;;;;44.20;38.00;;;;;23.76;100.00;101717.38;2102089;28;46519;-55
2023/10/09 00:28:13;;;;;;;;;49.20;40.80;;;;;23.76;100.00;101720.06;2105176;28;46574;-57
2023/10/09 00:29:16;;;;;;;;;49.50;41.75;;;;;23.75;100.00;101721.00;2103520;28;46686;-57
2023/10/09 00:30:29;;;;;;;;;53.80;43.00;;;;;23.76;100.00;101720.06;2101233;28;46704;-53
2023/10/09 00:31:33;;;;;;;;;52.80;44.00;;;;;23.77;100.00;101723.66;2105186;27;46282;-55
2023/10/09 00:32:37;;;;;;;;;42.80;36.40;;;;;23.76;100.00;101713.78;2105356;27;46820;-56
2023/10/09 00:33:37;;;;;;;;;43.40;36.00;;;;;23.75;100.00;101718.31;2104145;27;46835;-57
2023/10/09 00:34:39;;;;;;;;;44.75;36.50;;;;;23.77;100.00;101718.25;2104761;27;46309;-55
2023/10/09 00:35:54;;;;;;;;;43.40;37.00;;;;;23.75;100.00;101717.44;2105471;27;46941;-55
2023/10/09 00:36:55;;;;;;;;;36.60;32.80;;;;;23.73;100.00;101727.50;2105433;27;46249;-57
2023/10/09 00:38:02;;;;;;;;;38.00;33.80;;;;;23.71;100.00;101724.88;2105264;27;46678;-57
2023/10/09 00:39:19;;;;;;;;;44.60;38.00;;;;;23.70;100.00;101715.00;2105251;28;46820;-59
2023/10/09 00:40:20;;;;;;;;;43.80;35.20;;;;;23.70;100.00;101720.44;2104221;27;46585;-56
2023/10/09 00:41:24;;;;;;;;;44.25;36.00;;;;;23.70;100.00;101715.00;2105404;27;47148;-58
2023/10/09 00:42:36;;;;;;;;;45.00;37.60;;;;;23.69;100.00;101713.28;2109983;27;45866;-56
2023/10/09 00:43:42;;;;;;;;;37.80;33.60;;;;;23.69;100.00;101721.41;2110087;27;45581;-57
2023/10/09 00:44:43;;;;;;;;;44.20;35.60;;;;;23.67;100.00;101711.63;2105637;27;46416;-56
2023/10/09 00:45:44;;;;;;;;;43.00;36.25;;;;;23.67;100.00;101712.50;2105058;28;46851;-54
2023/10/09 00:46:47;;;;;;;;;39.20;34.00;;;;;23.66;100.00;101704.47;2105414;27;46198;-57
2023/10/09 00:47:48;;;;;;;;;47.00;38.60;;;;;23.67;100.00;101700.78;2105247;27;46253;-54
2023/10/09 00:48:51;;;;;;;;;47.00;37.00;;;;;23.67;100.00;101703.50;2103569;28;46461;-53
2023/10/09 00:50:00;;;;;;;;;45.00;36.60;;;;;23.67;100.00;101704.38;2105033;27;46331;-53
2023/10/09 00:51:01;;;;;;;;;39.80;34.80;;;;;23.66;100.00;101697.19;2105314;27;46360;-58
2023/10/09 00:52:02;;;;;;;;;43.25;36.25;;;;;23.66;100.00;101702.63;2104505;27;46835;-54
2023/10/09 00:53:10;;;;;;;;;41.75;35.75;;;;;23.66;100.00;101699.91;2105256;27;46648;-58
2023/10/09 00:54:14;;;;;;;;;43.40;36.00;;;;;23.65;100.00;101697.31;2103753;27;46516;-55
2023/10/09 00:55:21;;;;;;;;;41.20;35.40;;;;;23.66;100.00;101699.03;2105021;27;46218;-55
2023/10/09 00:57:25;;;;;;;;;40.80;34.40;;;;;23.65;100.00;101697.31;2103260;28;46013;-54
2023/10/09 00:58:30;;;;;;;;;43.50;36.50;;;;;23.65;100.00;101687.34;2102105;28;46617;-58
2023/10/09 00:59:34;;;;;;;;;47.20;38.20;;;;;23.66;100.00;101693.63;2104047;27;46597;-52
2023/10/09 01:01:58;;;;;;;;;44.60;37.60;;;;;23.67;100.00;101695.38;2103948;27;46625;-56
2023/10/09 01:04:17;;;;;;;;;40.80;34.60;;;;;23.65;100.00;101687.34;2103719;28;46714;-54
2023/10/09 01:05:21;;;;;;;;;43.50;36.00;;;;;23.66;100.00;101685.50;2103456;27;46599;-53
2023/10/09 01:06:27;;;;;;;;;38.60;34.40;;;;;23.65;100.00;101684.63;2103977;28;46930;-55
2023/10/09 01:07:28;;;;;;;;;36.40;32.40;;;;;23.64;100.00;101680.16;2104174;28;46300;-55
2023/10/09 01:09:45;;;;;;;;;38.60;33.40;;;;;23.63;100.00;101680.22;2104638;27;46279;-55
2023/10/09 01:10:53;;;;;;;;;42.60;34.40;;;;;23.62;100.00;101673.94;2104772;28;45693;-56
2023/10/09 01:13:00;;;;;;;;;43.00;36.00;;;;;23.60;100.00;101670.47;2101993;28;46808;-55
2023/10/09 01:14:21;;;;;;;;;44.25;37.75;;;;;23.61;100.00;101669.50;2103454;28;46497;-55
2023/10/09 01:15:36;;;;;;;;;51.00;41.00;;;;;23.62;100.00;101668.53;2104031;27;46489;-56
2023/10/09 01:16:36;;;;;;;;;49.60;41.20;;;;;23.63;100.00;101663.97;2105100;27;46586;-55
2023/10/09 01:17:36;;;;;;;;;47.00;39.25;;;;;23.65;100.00;101667.50;2105496;28;46599;-55
2023/10/09 01:18:42;;;;;;;;;44.00;37.75;;;;;23.66;100.00;101670.09;2105163;27;46094;-56
2023/10/09 01:19:43;;;;;;;;;48.60;40.60;;;;;23.67;100.00;101665.56;2105100;27;46831;-57
2023/10/09 01:20:45;;;;;;;;;46.80;39.00;;;;;23.67;100.00;101662.84;2103524;28;46809;-56
2023/10/09 01:21:46;;;;;;;;;36.40;32.20;;;;;23.69;100.00;101669.03;2105698;27;46867;-57
2023/10/09 01:22:49;;;;;;;;;39.60;34.00;;;;;23.66;100.00;101669.22;2104467;28;45774;-54
2023/10/09 01:24:11;;;;;;;;;36.60;33.40;;;;;23.65;100.00;101667.50;2112843;27;46489;-51
2023/10/09 01:25:10;;;;;;;;;35.20;32.40;;;;;23.64;100.00;101657.63;2100735;28;46447;-57
2023/10/09 01:26:11;;;;;;;;;36.75;31.50;;;;;23.66;100.00;101661.09;2103226;28;46437;-56
2023/10/09 01:27:14;;;;;;;;;34.75;31.00;;;;;23.65;100.00;101662.94;2105642;27;46735;-53
2023/10/09 01:28:15;;;;;;;;;40.00;34.20;;;;;23.66;100.00;101666.53;2102010;28;46813;-56
2023/10/09 01:29:19;;;;;;;;;35.60;31.60;;;;;23.65;100.00;101657.53;2100353;28;46769;-56
2023/10/09 01:30:20;;;;;;;;;36.80;31.60;;;;;23.64;100.00;101657.63;2103594;27;46714;-56
2023/10/09 01:31:20;;;;;;;;;28.80;27.20;;;;;23.62;100.00;101654.09;2104488;27;46379;-57
2023/10/09 01:32:21;;;;;;;;;36.50;32.00;;;;;23.59;100.00;101649.75;2101264;27;46624;-56
2023/10/09 01:33:26;;;;;;;;;34.50;31.25;;;;;23.58;100.00;101649.84;2110570;27;46980;-56
2023/10/09 01:34:45;;;;;;;;;31.00;29.60;;;;;23.58;100.00;101649.84;2112068;27;46717;-56
2023/10/09 01:35:50;;;;;;;;;33.00;31.20;;;;;23.55;100.00;101644.59;2105250;27;46290;-56
2023/10/09 01:36:55;;;;;;;;;33.80;31.20;;;;;23.54;100.00;101645.56;2102554;27;46921;-54
2023/10/09 01:37:56;;;;;;;;;34.40;30.40;;;;;23.53;100.00;101647.41;2104137;28;45894;-56
2023/10/09 01:39:07;;;;;;;;;42.00;33.20;;;;;23.56;100.00;101643.63;2093447;28;46574;-55
2023/10/09 01:40:24;;;;;;;;;35.60;31.60;;;;;23.55;100.00;101639.19;2096950;28;46813;-56
2023/10/09 01:41:25;;;;;;;;;31.00;29.00;;;;;23.54;100.00;101642.84;2103438;28;47149;-56
2023/10/09 01:42:34;;;;;;;;;32.50;30.00;;;;;23.54;100.00;101645.56;2104751;27;46556;-55
2023/10/09 01:43:35;;;;;;;;;32.40;29.80;;;;;23.52;100.00;101642.94;2105218;27;46516;-57
2023/10/09 01:44:35;;;;;;;;;36.00;31.75;;;;;23.50;100.00;101647.56;2104847;28;46028;-55
2023/10/09 01:45:43;;;;;;;;;31.50;30.50;;;;;23.49;100.00;101643.97;2105022;28;46797;-56
2023/10/09 01:46:45;;;;;;;;;37.40;31.20;;;;;23.50;100.00;101644.84;2103903;27;45787;-55
2023/10/09 01:47:53;;;;;;;;;33.20;29.00;;;;;23.49;100.00;101649.41;2104833;27;46588;-56
2023/10/09 01:48:54;;;;;;;;;34.20;31.00;;;;;23.52;100.00;101650.22;2103914;27;46486;-56
2023/10/09 01:49:57;;;;;;;;;29.60;26.60;;;;;23.51;100.00;101649.34;2105001;27;46522;-54
2023/10/09 01:51:00;;;;;;;;;28.40;26.80;;;;;23.51;100.00;101643.91;2104406;27;46927;-55
2023/10/09 01:52:06;;;;;;;;;36.40;30.60;;;;;23.50;100.00;101639.44;2104561;27;46348;-55
2023/10/09 01:53:17;;;;;;;;;36.00;32.40;;;;;23.51;100.00;101646.63;2104785;28;46868;-56
2023/10/09 01:54:33;;;;;;;;;35.60;31.00;;;;;23.49;100.00;101641.28;2100089;28;46796;-57
2023/10/09 01:55:39;;;;;;;;;36.40;31.20;;;;;23.50;100.00;101644.84;2109795;27;46562;-56
2023/10/09 01:56:45;;;;;;;;;30.80;29.40;;;;;23.50;100.00;101642.16;2098468;28;46306;-54
2023/10/09 01:57:46;;;;;;;;;34.20;31.00;;;;;23.51;100.00;101638.50;2105095;27;46990;-54
2023/10/09 01:58:47;;;;;;;;;35.50;30.75;;;;;23.49;100.00;101641.28;2103009;28;46633;-57
2023/10/09 01:59:49;;;;;;;;;34.60;30.00;;;;;23.47;100.00;101645.03;2104799;27;46294;-56
2023/10/09 02:00:56;;;;;;;;;35.40;32.20;;;;;23.46;100.00;101640.59;2105081;27;45800;-53
2023/10/09 02:01:58;;;;;;;;;31.80;29.60;;;;;23.45;100.00;101639.72;2105025;27;45629;-54
2023/10/09 02:03:04;;;;;;;;;37.60;33.60;;;;;23.46;100.00;101638.75;2101992;27;46363;-52
2023/10/09 02:04:11;;;;;;;;;16.60;13.80;;;;;23.47;100.00;101626.09;2100867;27;46110;-57
2023/10/09 02:06:29;;;;;;;;;34.00;31.00;;;;;23.49;100.00;101637.69;2104573;27;46764;-52
2023/10/09 02:07:40;;;;;;;;;35.80;31.60;;;;;23.52;100.00;101629.41;2104823;27;46840;-57
2023/10/09 02:08:49;;;;;;;;;36.00;31.80;;;;;23.54;100.00;101638.31;2104203;27;46393;-57
2023/10/09 02:09:49;;;;;;;;;28.60;27.60;;;;;23.55;100.00;101629.22;2104599;27;46051;-55
2023/10/09 02:10:49;;;;;;;;;38.25;32.00;;;;;23.54;100.00;101627.47;2104799;27;46817;-54
2023/10/09 02:11:51;;;;;;;;;27.75;27.75;;;;;23.52;100.00;101634.81;2105213;28;46490;-56
2023/10/09 02:12:59;;;;;;;;;33.40;30.40;;;;;23.51;100.00;101633.09;2104606;27;46600;-56
2023/10/09 02:14:00;;;;;;;;;35.20;31.40;;;;;23.51;100.00;101632.22;2104403;27;46754;-56
2023/10/09 02:15:06;;;;;;;;;36.60;31.20;;;;;23.49;100.00;101633.16;2104638;27;46692;-56
2023/10/09 02:17:18;;;;;;;;;26.80;26.80;;;;;23.50;100.00;101631.31;2113539;27;47365;-53
2023/10/09 02:19:33;;;;;;;;;33.80;30.60;;;;;23.48;100.00;101630.53;2104943;27;46398;-53
2023/10/09 02:20:37;;;;;;;;;32.00;28.60;;;;;23.48;100.00;101625.13;2111840;27;46214;-54
2023/10/09 02:21:41;;;;;;;;;31.80;30.20;;;;;23.47;100.00;101626.94;2108561;27;46900;-57
2023/10/09 02:22:41;;;;;;;;;33.80;31.00;;;;;23.46;100.00;101622.50;2113386;27;46816;-55
2023/10/09 02:25:53;;;;;;;;;34.60;30.20;;;;;23.45;100.00;101619.91;2113039;27;47032;-57
2023/10/09 02:27:53;;;;;;;;;35.00;32.00;;;;;23.43;100.00;101622.69;2112264;27;46597;-55
2023/10/09 02:28:58;;;;;;;;;28.75;28.00;;;;;23.44;100.00;101623.56;2111982;27;46553;-55
2023/10/09 02:29:58;;;;;;;;;30.80;28.00;;;;;23.43;100.00;101621.84;2110101;27;47011;-55
2023/10/09 02:31:01;;;;;;;;;34.25;30.00;;;;;23.41;100.00;101619.22;2112808;27;46423;-55
2023/10/09 02:32:13;;;;;;;;;34.40;31.00;;;;;23.39;100.00;101615.75;2111567;27;47114;-55
2023/10/09 02:33:27;;;;;;;;;37.40;31.00;;;;;23.41;100.00;101615.63;2104305;28;45817;-56
2023/10/09 02:34:28;;;;;;;;;33.80;30.20;;;;;23.39;100.00;101615.75;2104376;28;46638;-54
2023/10/09 02:35:38;;;;;;;;;33.00;30.60;;;;;23.39;100.00;101614.88;2106413;27;46383;-56
2023/10/09 02:36:41;;;;;;;;;30.80;28.20;;;;;23.38;100.00;101616.72;2112094;27;45083;-56
2023/10/09 02:37:42;;;;;;;;;28.80;27.60;;;;;23.37;100.00;101614.06;2111669;27;46755;-56
2023/10/09 02:38:43;;;;;;;;;33.00;29.50;;;;;23.38;100.00;101615.84;2112044;27;46595;-57
2023/10/09 02:39:46;;;;;;;;;31.80;29.40;;;;;23.38;100.00;101611.28;2112722;27;46031;-58
2023/10/09 02:43:18;;;;;;;;;31.60;30.00;;;;;23.39;100.00;101615.75;2112239;27;46466;-58
2023/10/09 02:44:24;;;;;;;;;27.80;27.60;;;;;23.39;100.00;101612.16;2113147;27;46279;-56
2023/10/09 02:45:25;;;;;;;;;37.00;31.40;;;;;23.38;100.00;101615.84;2111607;27;46638;-54
2023/10/09 02:46:32;;;;;;;;;30.00;29.00;;;;;23.37;100.00;101608.66;2113094;27;46569;-57
2023/10/09 02:47:39;;;;;;;;;34.40;31.20;;;;;23.35;100.00;101607.88;2102108;28;47414;-56
2023/10/09 02:48:45;;;;;;;;;31.20;29.60;;;;;23.35;100.00;101606.03;2103050;27;46864;-54
2023/10/09 02:49:48;;;;;;;;;33.00;31.20;;;;;23.35;100.00;101613.28;2112191;27;46759;-56
2023/10/09 02:50:50;;;;;;;;;31.60;28.80;;;;;23.35;100.00;101616.88;2112684;27;46248;-56
2023/10/09 02:51:53;;;;;;;;;35.80;30.00;;;;;23.37;100.00;101623.06;2113157;27;46951;-56
2023/10/09 02:52:59;;;;;;;;;35.00;31.00;;;;;23.39;100.00;101623.00;2111142;27;46336;-56
2023/10/09 02:54:07;;;;;;;;;35.80;31.40;;;;;23.39;100.00;101623.88;2112789;27;46312;-57
2023/10/09 02:55:22;;;;;;;;;37.40;30.40;;;;;23.40;100.00;101619.31;2113420;27;46376;-55
2023/10/09 02:56:40;;;;;;;;;37.40;29.60;;;;;23.42;100.00;101615.53;2113429;27;46803;-53
2023/10/09 02:57:44;;;;;;;;;34.40;30.20;;;;;23.41;100.00;101615.63;2113568;27;45615;-57
2023/10/09 02:58:48;;;;;;;;;29.20;28.20;;;;;23.39;100.00;101620.28;2114231;27;46594;-57
2023/10/09 02:59:51;;;;;;;;;34.20;30.60;;;;;23.39;100.00;101614.88;2113776;27;46585;-56
2023/10/09 03:00:51;;;;;;;;;33.80;30.80;;;;;23.40;100.00;101624.72;2096923;28;46359;-56
2023/10/09 03:01:54;;;;;;;;;33.00;29.50;;;;;23.38;100.00;101624.81;2095709;28;46182;-58
2023/10/09 03:02:58;;;;;;;;;37.80;31.60;;;;;23.38;100.00;101629.38;2105642;27;45723;-54
2023/10/09 03:04:02;;;;;;;;;34.20;30.40;;;;;23.36;100.00;101621.31;2113788;27;46377;-56
2023/10/09 03:05:03;;;;;;;;;36.80;31.40;;;;;23.36;100.00;101625.88;2105185;28;46341;-53
2023/10/09 03:06:11;;;;;;;;;32.00;31.00;;;;;23.36;100.00;101631.28;2105157;27;46651;-56
2023/10/09 03:07:13;;;;;;;;;38.20;32.60;;;;;23.34;100.00;101628.66;2110047;27;46370;-55
2023/10/09 03:08:13;;;;;;;;;29.60;28.20;;;;;23.32;100.00;101630.59;2109141;27;46794;-53
2023/10/09 03:09:17;;;;;;;;;38.25;31.75;;;;;23.32;100.00;101627.91;2113432;27;46659;-53
2023/10/09 03:10:17;;;;;;;;;34.80;31.40;;;;;23.33;100.00;101631.47;2114988;27;46047;-54
2023/10/09 03:11:18;;;;;;;;;37.50;33.00;;;;;23.32;100.00;101630.59;2114207;27;46363;-55
2023/10/09 03:12:26;;;;;;;;;34.80;31.60;;;;;23.33;100.00;101642.31;2113609;27;46726;-52
2023/10/09 03:13:28;;;;;;;;;32.00;29.80;;;;;23.33;100.00;101639.59;2110142;27;46612;-55
2023/10/09 03:14:35;;;;;;;;;34.40;31.40;;;;;23.34;100.00;101641.34;2109020;27;46809;-53
2023/10/09 03:15:35;;;;;;;;;37.80;33.40;;;;;23.34;100.00;101644.91;2110470;27;47009;-54
2023/10/09 03:16:36;;;;;;;;;32.00;30.75;;;;;23.36;100.00;101647.53;2104759;28;46249;-55
2023/10/09 03:17:36;;;;;;;;;34.50;29.75;;;;;23.36;100.00;101640.28;2103595;28;46738;-55
2023/10/09 03:18:37;;;;;;;;;31.50;29.75;;;;;23.35;100.00;101638.53;2112622;27;46424;-54
2023/10/09 03:19:37;;;;;;;;;31.25;28.50;;;;;23.33;100.00;101639.59;2114058;27;46947;-56
2023/10/09 03:20:38;;;;;;;;;36.50;31.00;;;;;23.32;100.00;101644.16;2114421;27;46660;-56
2023/10/09 03:21:38;;;;;;;;;32.75;30.25;;;;;23.33;100.00;101645.88;2104902;28;47068;-56
2023/10/09 03:22:39;;;;;;;;;36.75;33.25;;;;;23.33;100.00;101636.88;2088815;28;46432;-55
2023/10/09 03:23:40;;;;;;;;;39.50;31.50;;;;;23.34;100.00;101635.94;2087506;28;46568;-55
2023/10/09 03:24:49;;;;;;;;;33.00;30.80;;;;;23.33;100.00;101635.06;2112559;27;46601;-56
2023/10/09 03:25:51;;;;;;;;;38.80;33.40;;;;;23.32;100.00;101635.16;2110736;27;46203;-57
2023/10/09 03:26:55;;;;;;;;;41.00;34.20;;;;;23.31;100.00;101631.56;2114431;27;46921;-57
2023/10/09 03:27:56;;;;;;;;;37.60;30.80;;;;;23.31;100.00;101631.56;2114251;27;46465;-55
2023/10/09 03:29:00;;;;;;;;;35.00;31.00;;;;;23.30;100.00;101632.53;2101542;28;46142;-54
2023/10/09 03:30:05;;;;;;;;;34.80;31.40;;;;;23.28;100.00;101623.63;2098025;28;46481;-54
2023/10/09 03:31:06;;;;;;;;;37.00;32.80;;;;;23.25;100.00;101621.13;2111356;27;46439;-54
2023/10/09 03:32:08;;;;;;;;;36.60;32.60;;;;;23.24;100.00;101623.91;2114251;27;46825;-54
2023/10/09 03:33:09;;;;;;;;;39.20;33.40;;;;;23.22;100.00;101626.69;2113853;27;47013;-55
2023/10/09 03:34:10;;;;;;;;;39.00;32.25;;;;;23.22;100.00;101631.25;2108610;27;46516;-54
2023/10/09 03:35:16;;;;;;;;;37.40;33.60;;;;;23.23;100.00;101624.88;2103789;28;46924;-55
2023/10/09 03:36:16;;;;;;;;;35.00;31.00;;;;;23.20;100.00;101626.78;2104975;27;46825;-55
2023/10/09 03:37:33;;;;;;;;;36.75;32.75;;;;;23.21;100.00;101630.38;2113694;27;46289;-55
2023/10/09 03:38:34;;;;;;;;;36.20;31.60;;;;;23.22;100.00;101628.53;2113303;27;46339;-53
2023/10/09 03:39:41;;;;;;;;;27.00;24.50;;;;;23.23;100.00;101639.28;2114255;27;46730;-55
2023/10/09 03:40:47;;;;;;;;;36.80;31.80;;;;;23.24;100.00;101634.72;2114089;27;46349;-56
2023/10/09 03:41:50;;;;;;;;;30.20;28.60;;;;;23.20;100.00;101634.91;2105287;27;46135;-57
2023/10/09 03:42:50;;;;;;;;;32.40;29.60;;;;;23.18;100.00;101636.84;2114164;27;46408;-55
2023/10/09 03:43:50;;;;;;;;;33.00;30.50;;;;;23.17;100.00;101635.09;2113676;27;46473;-57
2023/10/09 03:44:57;;;;;;;;;37.00;32.50;;;;;23.16;100.00;101637.91;2113628;27;45570;-53
2023/10/09 03:45:59;;;;;;;;;41.00;34.00;;;;;23.15;100.00;101647.00;2112615;27;46247;-55
2023/10/09 03:46:59;;;;;;;;;35.60;30.20;;;;;23.14;100.00;101648.84;2114256;27;47068;-55
2023/10/09 03:48:09;;;;;;;;;36.25;33.00;;;;;23.15;100.00;101641.59;2114209;27;46420;-55
2023/10/09 03:49:11;;;;;;;;;32.20;30.20;;;;;23.14;100.00;101646.13;2113776;27;46850;-56
2023/10/09 03:50:26;;;;;;;;;37.60;31.60;;;;;23.13;100.00;101643.53;2114655;27;46615;-56
2023/10/09 03:51:27;;;;;;;;;36.20;31.00;;;;;23.13;100.00;101647.09;2114045;27;46524;-55
2023/10/09 03:52:30;;;;;;;;;39.40;34.80;;;;;23.11;100.00;101640.00;2114360;27;46982;-54
2023/10/09 03:53:31;;;;;;;;;36.60;32.80;;;;;23.11;100.00;101646.28;2114277;27;46099;-55
2023/10/09 03:54:32;;;;;;;;;32.50;30.50;;;;;23.09;100.00;101642.81;2114197;27;46621;-56
2023/10/09 03:55:34;;;;;;;;;35.40;31.40;;;;;23.07;100.00;101635.75;2114036;27;46761;-53
2023/10/09 03:56:35;;;;;;;;;35.60;31.20;;;;;23.06;100.00;101645.69;2113788;27;46474;-53
2023/10/09 03:57:35;;;;;;;;;37.75;32.50;;;;;23.06;100.00;101643.00;2112103;27;46592;-56
2023/10/09 03:58:36;;;;;;;;;34.50;30.25;;;;;23.07;100.00;101642.03;2106623;27;46279;-56
2023/10/09 03:59:37;;;;;;;;;32.50;29.75;;;;;23.10;100.00;101639.13;2113969;27;46662;-57
2023/10/09 04:00:45;;;;;;;;;34.00;31.00;;;;;23.12;100.00;101636.34;2114337;27;46302;-55
2023/10/09 04:01:46;;;;;;;;;33.60;30.80;;;;;23.11;100.00;101648.13;2114410;27;46601;-57
2023/10/09 04:02:49;;;;;;;;;29.60;28.60;;;;;23.10;100.00;101649.97;2113809;27;46542;-57
2023/10/09 04:03:55;;;;;;;;;31.00;29.20;;;;;23.11;100.00;101637.28;2114390;27;46765;-56
2023/10/09 04:04:55;;;;;;;;;34.20;31.20;;;;;23.10;100.00;101647.25;2113838;27;46851;-55
2023/10/09 04:05:56;;;;;;;;;31.25;29.00;;;;;;;;2106438;27;46514;-56
2023/10/09 04:06:56;;;;;;;;;38.50;32.50;;;;;23.09;100.00;101644.66;2107830;27;46670;-57
2023/10/09 04:07:58;;;;;;;;;35.50;30.75;;;;;23.06;100.00;101644.84;2114177;27;46328;-54
2023/10/09 04:09:13;;;;;;;;;37.40;31.60;;;;;23.06;100.00;101644.84;2112290;27;46816;-56
2023/10/09 04:11:33;;;;;;;;;34.20;29.40;;;;;23.07;100.00;101646.56;2114184;27;46876;-56
2023/10/09 04:12:34;;;;;;;;;35.00;31.20;;;;;23.06;100.00;101643.00;2114338;27;46003;-54
2023/10/09 04:13:34;;;;;;;;;34.50;31.50;;;;;23.04;100.00;101639.50;2114053;27;46634;-56
2023/10/09 04:14:35;;;;;;;;;33.50;30.75;;;;;23.03;100.00;101640.47;2112406;27;46004;-55
2023/10/09 04:15:36;;;;;;;;;37.80;32.40;;;;;23.03;100.00;101639.59;2111378;27;46459;-53
2023/10/09 04:16:51;;;;;;;;;31.25;30.00;;;;;23.01;100.00;101638.84;2112980;27;46807;-54
2023/10/09 04:17:51;;;;;;;;;30.00;27.60;;;;;22.98;100.00;101637.16;2113023;27;46374;-54
2023/10/09 04:18:52;;;;;;;;;30.50;29.00;;;;;22.98;100.00;101633.56;2102533;28;46340;-56
2023/10/09 04:21:33;;;;;;;;;36.60;32.80;;;;;22.95;100.00;101641.88;2105443;28;46988;-56
2023/10/09 04:22:39;;;;;;;;;36.00;31.40;;;;;22.93;100.00;101635.69;2113336;27;46417;-57
2023/10/09 04:24:58;;;;;;;;;36.20;32.60;;;;;22.90;100.00;101639.47;2110057;27;46559;-58
2023/10/09 04:25:59;;;;;;;;;31.00;29.00;;;;;22.91;100.00;101630.38;2103838;27;45598;-57
2023/10/09 04:27:02;;;;;;;;;38.00;31.20;;;;;22.89;100.00;101635.88;2102647;27;45713;-56
2023/10/09 04:28:09;;;;;;;;;34.20;31.20;;;;;22.88;100.00;101633.28;2114328;27;46181;-55
2023/10/09 04:29:18;;;;;;;;;36.60;32.80;;;;;22.85;100.00;101630.72;2113716;27;46472;-57
2023/10/09 04:30:19;;;;;;;;;33.80;31.20;;;;;22.83;100.00;101627.22;2113761;27;46011;-56
2023/10/09 04:31:21;;;;;;;;;34.00;30.40;;;;;22.80;100.00;101633.66;2111734;27;45714;-57
2023/10/09 04:32:24;;;;;;;;;31.60;30.40;;;;;22.81;100.00;101630.00;2114209;27;45993;-53
2023/10/09 04:33:28;;;;;;;;;36.40;32.00;;;;;22.82;100.00;101631.75;2113595;27;46791;-57
2023/10/09 04:34:28;;;;;;;;;29.40;28.40;;;;;22.81;100.00;101629.13;2114132;27;46534;-56
2023/10/09 04:35:33;;;;;;;;;39.75;33.25;;;;;22.84;100.00;101634.38;2113797;27;46935;-55
2023/10/09 04:36:46;;;;;;;;;30.00;29.20;;;;;22.82;100.00;101633.56;2104488;27;45320;-57
2023/10/09 04:37:52;;;;;;;;;36.60;32.60;;;;;22.82;100.00;101625.44;2105900;27;46447;-53
2023/10/09 04:41:27;;;;;;;;;30.00;29.00;;;;;22.78;100.00;101629.31;2114229;27;46999;-56
2023/10/09 04:42:36;;;;;;;;;28.75;24.00;;;;;22.77;100.00;101633.84;2095251;28;47046;-54
2023/10/09 04:43:43;;;;;;;;;37.00;33.00;;;;;22.76;100.00;101631.25;2097873;27;46587;-55
2023/10/09 04:46:23;;;;;;;;;35.60;32.00;;;;;22.70;100.00;101635.16;2113847;27;45738;-56
2023/10/09 04:47:25;;;;;;;;;30.80;29.40;;;;;22.68;100.00;101631.66;2111672;27;46477;-55
2023/10/09 04:48:38;;;;;;;;;33.20;30.80;;;;;22.68;100.00;101633.50;2109615;27;46415;-56
2023/10/09 04:52:18;;;;;;;;;35.00;28.00;;;;;22.68;100.00;101628.09;2106183;27;46501;-54
2023/10/09 04:54:33;;;;;;;;;35.25;31.00;;;;;22.65;100.00;101631.84;2113695;27;46218;-57
2023/10/09 04:55:38;;;;;;;;;32.60;30.00;;;;;22.65;100.00;101637.25;2113793;27;46769;-55
2023/10/09 04:56:51;;;;;;;;;33.80;30.40;;;;;22.65;100.00;101639.09;2114758;27;46309;-53
2023/10/09 04:58:01;;;;;;;;;29.80;28.40;;;;;22.66;100.00;101638.13;2113572;27;46687;-54
2023/10/09 04:59:07;;;;;;;;;35.20;30.80;;;;;22.69;100.00;101640.66;2113924;27;46587;-56
2023/10/09 05:01:35;;;;;;;;;32.60;29.40;;;;;22.71;100.00;101644.16;2111681;27;46283;-54
2023/10/09 05:02:36;;;;;;;;;36.40;32.40;;;;;22.72;100.00;101643.19;2111745;27;46296;-54
2023/10/09 05:04:41;;;;;;;;;31.60;30.60;;;;;22.71;100.00;101642.31;2113596;27;46363;-55
2023/10/09 05:06:55;;;;;;;;;35.25;31.25;;;;;22.69;100.00;101640.66;2114362;27;46109;-53
2023/10/09 05:07:56;;;;;;;;;35.40;32.00;;;;;22.71;100.00;101652.25;2112975;27;47101;-56
2023/10/09 05:09:07;;;;;;;;;34.40;30.60;;;;;22.72;100.00;101652.16;2113244;27;46568;-56
2023/10/09 05:10:17;;;;;;;;;29.20;27.60;;;;;22.74;100.00;101655.69;2104825;28;46780;-56
2023/10/09 05:12:56;;;;;;;;;28.40;25.20;;;;;22.70;100.00;101659.50;2102761;28;46800;-57
2023/10/09 05:14:12;;;;;;;;;30.00;28.40;;;;;22.72;100.00;101656.72;2078827;28;46639;-56
2023/10/09 05:15:14;;;;;;;;;29.60;28.60;;;;;22.72;100.00;101654.00;2087116;28;46612;-57
2023/10/09 05:16:22;;;;;;;;;34.20;30.20;;;;;22.71;100.00;101660.38;2096401;28;46701;-55
2023/10/09 05:17:25;;;;;;;;;30.60;28.80;;;;;22.71;100.00;101657.69;2098598;28;46305;-56
2023/10/09 05:18:27;;;;;;;;;29.60;28.80;;;;;22.68;100.00;101657.84;2097657;28;46313;-56
2023/10/09 05:19:42;;;;;;;;;28.20;27.60;;;;;22.69;100.00;101665.00;2091359;28;46957;-56
2023/10/09 05:20:55;;;;;;;;;29.80;28.00;;;;;22.68;100.00;101657.84;2095760;28;46942;-56
2023/10/09 05:22:04;;;;;;;;;30.00;29.00;;;;;22.68;100.00;101657.84;2096057;28;46062;-56
2023/10/09 05:24:47;;;;;;;;;26.20;24.00;;;;;22.70;100.00;101656.81;2062754;28;46890;-56